Aviation Digital Data Service (ADDS)

Output produced by METARs form (1555 UTC 23 April 2017)
found at http://www.aviationweather.gov/adds/metars/
 
MRLB 231100Z 2312/2412 08008KT 9999 FEW040 TX35/2318Z TN22/2410Z 
     TEMPO 2312/2314 VRB02KT 
     BECMG 2317/2319 26010KT
       
MROC 231100Z 2312/2412 06006KT 9999 FEW035 TX29/2318Z TN19/2410Z 
     TEMPO 2313/2315 26010KT 
     TEMPO 2320/2323 RA BKN020
       
MRLM 231100Z 2312/2412 26007KT 9999 FEW030 TX31/2318Z TN23/2410Z 
     BECMG 2314/2316 07008KT
       
MRPV 231100Z 2312/2412 08006KT 9999 FEW035 TX29/2318Z TN19/2410Z 
     TEMPO 2313/2315 24010KT 
     TEMPO 2320/2323 RA BKN020